sensor_id;sensor_type;location;lat;lon;timestamp;P1;durP1;ratioP1;P2;durP2;ratioP2
66597;SDS011;57424;53.128;6.406;2022-10-23T00:00:36;4.03;;;1.73;;
66597;SDS011;57424;53.128;6.406;2022-10-23T00:03:03;4.07;;;1.75;;
66597;SDS011;57424;53.128;6.406;2022-10-23T00:05:29;2.33;;;1.50;;
66597;SDS011;57424;53.128;6.406;2022-10-23T00:07:57;2.35;;;1.40;;
66597;SDS011;57424;53.128;6.406;2022-10-23T00:10:24;3.10;;;1.85;;
66597;SDS011;57424;53.128;6.406;2022-10-23T00:12:51;3.72;;;1.90;;
66597;SDS011;57424;53.128;6.406;2022-10-23T00:15:19;2.83;;;1.65;;
66597;SDS011;57424;53.128;6.406;2022-10-23T00:17:46;4.20;;;1.92;;
66597;SDS011;57424;53.128;6.406;2022-10-23T00:20:12;4.70;;;1.70;;
66597;SDS011;57424;53.128;6.406;2022-10-23T00:22:39;3.85;;;1.60;;
66597;SDS011;57424;53.128;6.406;2022-10-23T00:25:05;4.20;;;1.67;;
66597;SDS011;57424;53.128;6.406;2022-10-23T00:27:32;2.58;;;1.50;;
66597;SDS011;57424;53.128;6.406;2022-10-23T00:29:57;2.50;;;1.38;;
66597;SDS011;57424;53.128;6.406;2022-10-23T00:32:23;2.80;;;1.48;;
66597;SDS011;57424;53.128;6.406;2022-10-23T00:34:49;3.75;;;1.70;;
66597;SDS011;57424;53.128;6.406;2022-10-23T00:37:15;2.42;;;1.60;;
66597;SDS011;57424;53.128;6.406;2022-10-23T00:39:40;2.75;;;1.52;;
66597;SDS011;57424;53.128;6.406;2022-10-23T00:42:06;4.47;;;1.33;;
66597;SDS011;57424;53.128;6.406;2022-10-23T00:46:59;2.75;;;1.63;;
66597;SDS011;57424;53.128;6.406;2022-10-23T00:49:25;3.17;;;1.73;;
66597;SDS011;57424;53.128;6.406;2022-10-23T00:51:52;4.93;;;1.50;;
66597;SDS011;57424;53.128;6.406;2022-10-23T00:54:24;4.28;;;1.65;;
66597;SDS011;57424;53.128;6.406;2022-10-23T00:56:55;2.35;;;1.60;;
66597;SDS011;57424;53.128;6.406;2022-10-23T00:59:23;3.40;;;1.60;;
66597;SDS011;57424;53.128;6.406;2022-10-23T01:01:49;2.85;;;1.70;;
66597;SDS011;57424;53.128;6.406;2022-10-23T01:04:14;4.65;;;1.70;;
66597;SDS011;57424;53.128;6.406;2022-10-23T01:06:41;1.98;;;1.40;;
66597;SDS011;57424;53.128;6.406;2022-10-23T01:14:26;2.53;;;1.67;;
66597;SDS011;57424;53.128;6.406;2022-10-23T01:22:52;3.60;;;1.73;;
66597;SDS011;57424;53.128;6.406;2022-10-23T01:25:31;4.57;;;1.63;;
66597;SDS011;57424;53.128;6.406;2022-10-23T01:28:20;2.88;;;1.50;;
66597;SDS011;57424;53.128;6.406;2022-10-23T01:30:58;3.42;;;1.50;;
66597;SDS011;57424;53.128;6.406;2022-10-23T01:36:03;2.08;;;1.55;;
66597;SDS011;57424;53.128;6.406;2022-10-23T01:43:43;3.75;;;1.60;;
66597;SDS011;57424;53.128;6.406;2022-10-23T01:46:16;2.17;;;1.40;;
66597;SDS011;57424;53.128;6.406;2022-10-23T01:48:44;2.17;;;1.83;;
66597;SDS011;57424;53.128;6.406;2022-10-23T01:51:16;2.75;;;1.60;;
66597;SDS011;57424;53.128;6.406;2022-10-23T01:53:43;2.97;;;1.67;;
66597;SDS011;57424;53.128;6.406;2022-10-23T01:56:12;2.70;;;1.40;;
66597;SDS011;57424;53.128;6.406;2022-10-23T01:58:43;3.35;;;1.58;;
66597;SDS011;57424;53.128;6.406;2022-10-23T02:01:11;2.92;;;1.67;;
66597;SDS011;57424;53.128;6.406;2022-10-23T02:03:38;4.28;;;1.70;;
66597;SDS011;57424;53.128;6.406;2022-10-23T02:06:07;3.35;;;1.52;;
66597;SDS011;57424;53.128;6.406;2022-10-23T02:08:33;3.42;;;2.10;;
66597;SDS011;57424;53.128;6.406;2022-10-23T02:18:45;2.30;;;1.50;;
66597;SDS011;57424;53.128;6.406;2022-10-23T02:21:53;6.03;;;1.88;;
66597;SDS011;57424;53.128;6.406;2022-10-23T02:25:12;3.35;;;1.60;;
66597;SDS011;57424;53.128;6.406;2022-10-23T02:28:03;2.95;;;1.70;;
66597;SDS011;57424;53.128;6.406;2022-10-23T02:30:11;2.55;;;1.80;;
66597;SDS011;57424;53.128;6.406;2022-10-23T02:32:40;2.55;;;1.58;;
66597;SDS011;57424;53.128;6.406;2022-10-23T02:35:11;2.45;;;1.70;;
66597;SDS011;57424;53.128;6.406;2022-10-23T02:37:37;2.17;;;1.48;;
66597;SDS011;57424;53.128;6.406;2022-10-23T02:40:02;3.78;;;1.80;;
66597;SDS011;57424;53.128;6.406;2022-10-23T02:42:35;3.42;;;1.70;;
66597;SDS011;57424;53.128;6.406;2022-10-23T02:47:54;2.10;;;1.50;;
66597;SDS011;57424;53.128;6.406;2022-10-23T02:50:36;4.38;;;1.80;;
66597;SDS011;57424;53.128;6.406;2022-10-23T02:56:04;2.05;;;1.55;;
66597;SDS011;57424;53.128;6.406;2022-10-23T03:01:51;2.13;;;1.45;;
66597;SDS011;57424;53.128;6.406;2022-10-23T03:06:49;1.83;;;1.38;;
66597;SDS011;57424;53.128;6.406;2022-10-23T03:09:15;2.55;;;1.60;;
66597;SDS011;57424;53.128;6.406;2022-10-23T03:11:42;4.32;;;1.65;;
66597;SDS011;57424;53.128;6.406;2022-10-23T03:14:07;1.92;;;1.50;;
66597;SDS011;57424;53.128;6.406;2022-10-23T03:16:35;3.58;;;1.67;;
66597;SDS011;57424;53.128;6.406;2022-10-23T03:19:01;2.50;;;1.52;;
66597;SDS011;57424;53.128;6.406;2022-10-23T03:21:26;2.20;;;1.50;;
66597;SDS011;57424;53.128;6.406;2022-10-23T03:23:52;3.13;;;1.80;;
66597;SDS011;57424;53.128;6.406;2022-10-23T03:26:17;3.10;;;1.75;;
66597;SDS011;57424;53.128;6.406;2022-10-23T03:28:43;2.15;;;1.60;;
66597;SDS011;57424;53.128;6.406;2022-10-23T03:31:08;2.85;;;1.42;;
66597;SDS011;57424;53.128;6.406;2022-10-23T03:33:34;3.50;;;1.63;;
66597;SDS011;57424;53.128;6.406;2022-10-23T03:35:59;4.30;;;1.70;;
66597;SDS011;57424;53.128;6.406;2022-10-23T03:38:25;2.35;;;1.45;;
66597;SDS011;57424;53.128;6.406;2022-10-23T03:40:50;2.42;;;1.65;;
66597;SDS011;57424;53.128;6.406;2022-10-23T03:43:16;2.78;;;1.60;;
66597;SDS011;57424;53.128;6.406;2022-10-23T03:45:41;4.30;;;2.00;;
66597;SDS011;57424;53.128;6.406;2022-10-23T03:48:07;2.40;;;1.65;;
66597;SDS011;57424;53.128;6.406;2022-10-23T03:50:33;2.38;;;1.42;;
66597;SDS011;57424;53.128;6.406;2022-10-23T03:52:59;3.83;;;1.73;;
66597;SDS011;57424;53.128;6.406;2022-10-23T03:55:25;3.28;;;1.60;;
66597;SDS011;57424;53.128;6.406;2022-10-23T03:57:51;1.77;;;1.35;;
66597;SDS011;57424;53.128;6.406;2022-10-23T04:00:17;2.17;;;1.60;;
66597;SDS011;57424;53.128;6.406;2022-10-23T04:02:43;2.50;;;1.70;;
66597;SDS011;57424;53.128;6.406;2022-10-23T04:05:08;1.65;;;1.52;;
66597;SDS011;57424;53.128;6.406;2022-10-23T04:07:34;1.65;;;1.30;;
66597;SDS011;57424;53.128;6.406;2022-10-23T04:10:00;2.38;;;1.50;;
66597;SDS011;57424;53.128;6.406;2022-10-23T04:12:26;2.85;;;1.60;;
66597;SDS011;57424;53.128;6.406;2022-10-23T04:14:51;2.42;;;1.75;;
66597;SDS011;57424;53.128;6.406;2022-10-23T04:17:17;3.78;;;1.48;;
66597;SDS011;57424;53.128;6.406;2022-10-23T04:19:42;1.77;;;1.40;;
66597;SDS011;57424;53.128;6.406;2022-10-23T04:22:08;1.83;;;1.60;;
66597;SDS011;57424;53.128;6.406;2022-10-23T04:24:34;2.08;;;1.50;;
66597;SDS011;57424;53.128;6.406;2022-10-23T04:26:59;2.65;;;1.45;;
66597;SDS011;57424;53.128;6.406;2022-10-23T04:29:25;1.73;;;1.45;;
66597;SDS011;57424;53.128;6.406;2022-10-23T04:31:50;2.65;;;1.70;;
66597;SDS011;57424;53.128;6.406;2022-10-23T04:34:17;2.10;;;1.50;;
66597;SDS011;57424;53.128;6.406;2022-10-23T04:36:42;1.73;;;1.50;;
66597;SDS011;57424;53.128;6.406;2022-10-23T04:39:09;1.85;;;1.40;;
66597;SDS011;57424;53.128;6.406;2022-10-23T04:41:34;1.90;;;1.50;;
66597;SDS011;57424;53.128;6.406;2022-10-23T04:44:02;1.50;;;1.40;;
66597;SDS011;57424;53.128;6.406;2022-10-23T04:46:28;3.08;;;1.58;;
66597;SDS011;57424;53.128;6.406;2022-10-23T04:48:54;2.58;;;1.63;;
66597;SDS011;57424;53.128;6.406;2022-10-23T04:51:19;1.55;;;1.40;;
66597;SDS011;57424;53.128;6.406;2022-10-23T04:53:45;2.53;;;1.60;;
66597;SDS011;57424;53.128;6.406;2022-10-23T04:56:11;2.17;;;1.83;;
66597;SDS011;57424;53.128;6.406;2022-10-23T04:58:39;2.40;;;1.52;;
66597;SDS011;57424;53.128;6.406;2022-10-23T05:01:05;1.70;;;1.30;;
66597;SDS011;57424;53.128;6.406;2022-10-23T05:03:31;2.20;;;1.60;;
66597;SDS011;57424;53.128;6.406;2022-10-23T05:05:57;1.90;;;1.60;;
66597;SDS011;57424;53.128;6.406;2022-10-23T05:08:23;2.35;;;1.70;;
66597;SDS011;57424;53.128;6.406;2022-10-23T05:10:49;1.73;;;1.40;;
66597;SDS011;57424;53.128;6.406;2022-10-23T05:13:18;2.22;;;1.40;;
66597;SDS011;57424;53.128;6.406;2022-10-23T05:15:47;2.17;;;1.77;;
66597;SDS011;57424;53.128;6.406;2022-10-23T05:18:15;1.70;;;1.48;;
66597;SDS011;57424;53.128;6.406;2022-10-23T05:20:43;2.95;;;1.80;;
66597;SDS011;57424;53.128;6.406;2022-10-23T05:23:10;2.05;;;1.40;;
66597;SDS011;57424;53.128;6.406;2022-10-23T05:25:40;2.70;;;1.50;;
66597;SDS011;57424;53.128;6.406;2022-10-23T05:28:06;1.80;;;1.58;;
66597;SDS011;57424;53.128;6.406;2022-10-23T05:30:32;2.53;;;1.63;;
66597;SDS011;57424;53.128;6.406;2022-10-23T05:32:58;2.35;;;1.73;;
66597;SDS011;57424;53.128;6.406;2022-10-23T05:35:25;2.70;;;1.63;;
66597;SDS011;57424;53.128;6.406;2022-10-23T05:37:51;1.55;;;1.45;;
66597;SDS011;57424;53.128;6.406;2022-10-23T05:40:18;2.50;;;1.70;;
66597;SDS011;57424;53.128;6.406;2022-10-23T05:42:44;1.95;;;1.60;;
66597;SDS011;57424;53.128;6.406;2022-10-23T05:45:09;2.67;;;1.60;;
66597;SDS011;57424;53.128;6.406;2022-10-23T05:47:35;3.40;;;1.80;;
66597;SDS011;57424;53.128;6.406;2022-10-23T05:50:00;3.03;;;1.70;;
66597;SDS011;57424;53.128;6.406;2022-10-23T05:52:26;2.35;;;1.67;;
66597;SDS011;57424;53.128;6.406;2022-10-23T05:54:52;2.30;;;1.95;;
66597;SDS011;57424;53.128;6.406;2022-10-23T05:57:17;2.83;;;1.70;;
66597;SDS011;57424;53.128;6.406;2022-10-23T05:59:43;3.10;;;1.70;;
66597;SDS011;57424;53.128;6.406;2022-10-23T06:02:09;4.03;;;1.50;;
66597;SDS011;57424;53.128;6.406;2022-10-23T06:04:34;3.33;;;1.73;;
66597;SDS011;57424;53.128;6.406;2022-10-23T06:07:00;3.08;;;2.00;;
66597;SDS011;57424;53.128;6.406;2022-10-23T06:09:27;2.88;;;2.10;;
66597;SDS011;57424;53.128;6.406;2022-10-23T06:11:52;2.22;;;1.80;;
66597;SDS011;57424;53.128;6.406;2022-10-23T06:14:18;2.85;;;1.70;;
66597;SDS011;57424;53.128;6.406;2022-10-23T06:16:43;2.25;;;1.42;;
66597;SDS011;57424;53.128;6.406;2022-10-23T06:19:09;2.13;;;1.60;;
66597;SDS011;57424;53.128;6.406;2022-10-23T06:21:36;2.65;;;1.73;;
66597;SDS011;57424;53.128;6.406;2022-10-23T06:24:03;3.08;;;1.92;;
66597;SDS011;57424;53.128;6.406;2022-10-23T06:26:29;2.50;;;1.58;;
66597;SDS011;57424;53.128;6.406;2022-10-23T06:28:55;2.60;;;1.98;;
66597;SDS011;57424;53.128;6.406;2022-10-23T06:31:20;1.75;;;1.63;;
66597;SDS011;57424;53.128;6.406;2022-10-23T06:33:50;3.45;;;1.83;;
66597;SDS011;57424;53.128;6.406;2022-10-23T06:36:16;2.10;;;1.67;;
66597;SDS011;57424;53.128;6.406;2022-10-23T06:38:42;2.80;;;1.65;;
66597;SDS011;57424;53.128;6.406;2022-10-23T06:41:13;3.58;;;1.73;;
66597;SDS011;57424;53.128;6.406;2022-10-23T06:43:48;1.75;;;1.52;;
66597;SDS011;57424;53.128;6.406;2022-10-23T06:46:16;2.20;;;1.70;;
66597;SDS011;57424;53.128;6.406;2022-10-23T06:48:43;2.67;;;1.75;;
66597;SDS011;57424;53.128;6.406;2022-10-23T06:51:09;3.38;;;2.17;;
66597;SDS011;57424;53.128;6.406;2022-10-23T06:53:36;2.70;;;1.70;;
66597;SDS011;57424;53.128;6.406;2022-10-23T06:56:02;3.90;;;1.85;;
66597;SDS011;57424;53.128;6.406;2022-10-23T06:58:29;3.35;;;1.58;;
66597;SDS011;57424;53.128;6.406;2022-10-23T07:00:58;3.17;;;1.63;;
66597;SDS011;57424;53.128;6.406;2022-10-23T07:03:26;2.75;;;1.90;;
66597;SDS011;57424;53.128;6.406;2022-10-23T07:05:51;1.88;;;1.48;;
66597;SDS011;57424;53.128;6.406;2022-10-23T07:08:17;2.58;;;1.80;;
66597;SDS011;57424;53.128;6.406;2022-10-23T07:10:42;2.25;;;1.70;;
66597;SDS011;57424;53.128;6.406;2022-10-23T07:13:09;2.97;;;1.63;;
66597;SDS011;57424;53.128;6.406;2022-10-23T07:15:35;1.87;;;1.40;;
66597;SDS011;57424;53.128;6.406;2022-10-23T07:18:02;2.10;;;1.40;;
66597;SDS011;57424;53.128;6.406;2022-10-23T07:20:28;2.83;;;1.70;;
66597;SDS011;57424;53.128;6.406;2022-10-23T07:22:54;2.28;;;1.83;;
66597;SDS011;57424;53.128;6.406;2022-10-23T07:25:24;2.47;;;1.70;;
66597;SDS011;57424;53.128;6.406;2022-10-23T07:27:51;2.00;;;1.52;;
66597;SDS011;57424;53.128;6.406;2022-10-23T07:32:44;3.58;;;1.60;;
66597;SDS011;57424;53.128;6.406;2022-10-23T07:35:10;2.58;;;1.80;;
66597;SDS011;57424;53.128;6.406;2022-10-23T07:37:36;2.53;;;1.80;;
66597;SDS011;57424;53.128;6.406;2022-10-23T07:40:03;1.80;;;1.55;;
66597;SDS011;57424;53.128;6.406;2022-10-23T07:42:30;1.98;;;1.55;;
66597;SDS011;57424;53.128;6.406;2022-10-23T07:44:56;1.88;;;1.70;;
66597;SDS011;57424;53.128;6.406;2022-10-23T07:47:21;2.85;;;1.60;;
66597;SDS011;57424;53.128;6.406;2022-10-23T07:49:47;2.20;;;1.70;;
66597;SDS011;57424;53.128;6.406;2022-10-23T07:52:13;2.65;;;1.40;;
66597;SDS011;57424;53.128;6.406;2022-10-23T07:54:38;3.15;;;1.80;;
66597;SDS011;57424;53.128;6.406;2022-10-23T07:57:04;2.65;;;1.85;;
66597;SDS011;57424;53.128;6.406;2022-10-23T07:59:31;3.40;;;2.13;;
66597;SDS011;57424;53.128;6.406;2022-10-23T08:01:57;4.70;;;2.03;;
66597;SDS011;57424;53.128;6.406;2022-10-23T08:04:23;5.10;;;2.17;;
66597;SDS011;57424;53.128;6.406;2022-10-23T08:06:49;3.92;;;2.05;;
66597;SDS011;57424;53.128;6.406;2022-10-23T08:09:14;5.25;;;2.20;;
66597;SDS011;57424;53.128;6.406;2022-10-23T08:11:40;3.50;;;2.25;;
66597;SDS011;57424;53.128;6.406;2022-10-23T08:14:06;4.32;;;2.00;;
66597;SDS011;57424;53.128;6.406;2022-10-23T08:16:33;3.35;;;2.08;;
66597;SDS011;57424;53.128;6.406;2022-10-23T08:21:26;3.78;;;2.65;;
66597;SDS011;57424;53.128;6.406;2022-10-23T08:23:53;3.05;;;2.03;;
66597;SDS011;57424;53.128;6.406;2022-10-23T08:26:19;6.75;;;2.10;;
66597;SDS011;57424;53.128;6.406;2022-10-23T08:28:46;7.78;;;2.45;;
66597;SDS011;57424;53.128;6.406;2022-10-23T08:31:14;3.88;;;2.03;;
66597;SDS011;57424;53.128;6.406;2022-10-23T08:33:42;6.65;;;2.38;;
66597;SDS011;57424;53.128;6.406;2022-10-23T08:36:18;4.40;;;2.00;;
66597;SDS011;57424;53.128;6.406;2022-10-23T08:38:45;3.13;;;1.98;;
66597;SDS011;57424;53.128;6.406;2022-10-23T08:44:52;5.18;;;2.00;;
66597;SDS011;57424;53.128;6.406;2022-10-23T08:47:04;2.80;;;1.88;;
66597;SDS011;57424;53.128;6.406;2022-10-23T08:49:51;2.47;;;1.80;;
66597;SDS011;57424;53.128;6.406;2022-10-23T08:52:31;3.42;;;2.25;;
66597;SDS011;57424;53.128;6.406;2022-10-23T08:55:01;3.70;;;1.98;;
66597;SDS011;57424;53.128;6.406;2022-10-23T08:57:57;3.95;;;1.98;;
66597;SDS011;57424;53.128;6.406;2022-10-23T09:00:30;2.63;;;1.98;;
66597;SDS011;57424;53.128;6.406;2022-10-23T09:02:59;2.63;;;2.20;;
66597;SDS011;57424;53.128;6.406;2022-10-23T09:05:29;2.22;;;2.00;;
66597;SDS011;57424;53.128;6.406;2022-10-23T09:10:57;3.17;;;1.80;;
66597;SDS011;57424;53.128;6.406;2022-10-23T09:16:21;2.50;;;1.90;;
66597;SDS011;57424;53.128;6.406;2022-10-23T09:19:02;3.70;;;2.50;;
66597;SDS011;57424;53.128;6.406;2022-10-23T09:21:40;3.83;;;2.45;;
66597;SDS011;57424;53.128;6.406;2022-10-23T09:24:17;2.67;;;2.15;;
66597;SDS011;57424;53.128;6.406;2022-10-23T09:26:45;5.28;;;2.30;;
66597;SDS011;57424;53.128;6.406;2022-10-23T09:29:19;4.72;;;2.17;;
66597;SDS011;57424;53.128;6.406;2022-10-23T09:32:07;3.50;;;2.10;;
66597;SDS011;57424;53.128;6.406;2022-10-23T09:34:33;6.00;;;2.60;;
66597;SDS011;57424;53.128;6.406;2022-10-23T09:37:00;7.82;;;2.10;;
66597;SDS011;57424;53.128;6.406;2022-10-23T09:41:58;2.13;;;1.90;;
66597;SDS011;57424;53.128;6.406;2022-10-23T09:44:30;3.88;;;2.22;;
66597;SDS011;57424;53.128;6.406;2022-10-23T09:47:16;4.65;;;2.10;;
66597;SDS011;57424;53.128;6.406;2022-10-23T09:49:48;2.28;;;1.90;;
66597;SDS011;57424;53.128;6.406;2022-10-23T09:52:21;3.33;;;2.50;;
66597;SDS011;57424;53.128;6.406;2022-10-23T09:54:50;3.83;;;2.03;;
66597;SDS011;57424;53.128;6.406;2022-10-23T09:57:23;6.32;;;2.20;;
66597;SDS011;57424;53.128;6.406;2022-10-23T10:00:18;2.97;;;2.00;;
66597;SDS011;57424;53.128;6.406;2022-10-23T10:02:55;11.02;;;2.00;;
66597;SDS011;57424;53.128;6.406;2022-10-23T10:07:58;3.28;;;2.08;;
66597;SDS011;57424;53.128;6.406;2022-10-23T10:10:28;3.45;;;1.90;;
66597;SDS011;57424;53.128;6.406;2022-10-23T10:13:02;4.38;;;2.17;;
66597;SDS011;57424;53.128;6.406;2022-10-23T10:15:55;3.20;;;1.60;;
66597;SDS011;57424;53.128;6.406;2022-10-23T10:18:31;3.55;;;1.98;;
66597;SDS011;57424;53.128;6.406;2022-10-23T10:21:09;2.83;;;1.65;;
66597;SDS011;57424;53.128;6.406;2022-10-23T10:23:55;8.05;;;2.25;;
66597;SDS011;57424;53.128;6.406;2022-10-23T10:27:31;2.90;;;2.10;;
66597;SDS011;57424;53.128;6.406;2022-10-23T10:29:49;5.80;;;2.10;;
66597;SDS011;57424;53.128;6.406;2022-10-23T10:32:27;3.85;;;1.92;;
66597;SDS011;57424;53.128;6.406;2022-10-23T10:40:29;3.15;;;1.70;;
66597;SDS011;57424;53.128;6.406;2022-10-23T10:49:13;2.90;;;2.08;;
66597;SDS011;57424;53.128;6.406;2022-10-23T10:52:14;3.50;;;1.88;;
66597;SDS011;57424;53.128;6.406;2022-10-23T10:55:18;7.43;;;2.00;;
66597;SDS011;57424;53.128;6.406;2022-10-23T10:58:23;2.85;;;1.80;;
66597;SDS011;57424;53.128;6.406;2022-10-23T11:01:16;3.45;;;1.92;;
66597;SDS011;57424;53.128;6.406;2022-10-23T11:04:10;4.63;;;1.90;;
66597;SDS011;57424;53.128;6.406;2022-10-23T11:06:56;2.38;;;1.80;;
66597;SDS011;57424;53.128;6.406;2022-10-23T11:09:27;3.47;;;1.92;;
66597;SDS011;57424;53.128;6.406;2022-10-23T11:11:54;3.35;;;1.60;;
66597;SDS011;57424;53.128;6.406;2022-10-23T11:14:20;3.63;;;1.70;;
66597;SDS011;57424;53.128;6.406;2022-10-23T11:16:50;2.25;;;1.65;;
66597;SDS011;57424;53.128;6.406;2022-10-23T11:19:42;3.80;;;2.08;;
66597;SDS011;57424;53.128;6.406;2022-10-23T11:28:10;2.83;;;1.80;;
66597;SDS011;57424;53.128;6.406;2022-10-23T11:39:23;3.90;;;1.83;;
66597;SDS011;57424;53.128;6.406;2022-10-23T11:47:05;2.65;;;1.80;;
66597;SDS011;57424;53.128;6.406;2022-10-23T11:55:03;5.80;;;2.03;;
66597;SDS011;57424;53.128;6.406;2022-10-23T11:57:39;3.40;;;1.63;;
66597;SDS011;57424;53.128;6.406;2022-10-23T12:00:17;2.70;;;1.88;;
66597;SDS011;57424;53.128;6.406;2022-10-23T12:02:51;4.15;;;1.80;;
66597;SDS011;57424;53.128;6.406;2022-10-23T12:05:32;3.28;;;1.90;;
66597;SDS011;57424;53.128;6.406;2022-10-23T12:08:02;3.38;;;1.77;;
66597;SDS011;57424;53.128;6.406;2022-10-23T12:10:33;2.72;;;1.73;;
66597;SDS011;57424;53.128;6.406;2022-10-23T12:13:25;3.42;;;1.92;;
66597;SDS011;57424;53.128;6.406;2022-10-23T12:16:10;2.33;;;1.58;;
66597;SDS011;57424;53.128;6.406;2022-10-23T12:18:51;5.85;;;1.88;;
66597;SDS011;57424;53.128;6.406;2022-10-23T12:21:21;3.58;;;1.70;;
66597;SDS011;57424;53.128;6.406;2022-10-23T12:23:57;4.15;;;1.70;;
66597;SDS011;57424;53.128;6.406;2022-10-23T12:26:41;2.78;;;1.98;;
66597;SDS011;57424;53.128;6.406;2022-10-23T12:40:35;8.57;;;2.08;;
66597;SDS011;57424;53.128;6.406;2022-10-23T12:43:01;3.40;;;1.95;;
66597;SDS011;57424;53.128;6.406;2022-10-23T12:45:27;5.90;;;2.00;;
66597;SDS011;57424;53.128;6.406;2022-10-23T12:48:01;5.25;;;1.75;;
66597;SDS011;57424;53.128;6.406;2022-10-23T12:50:28;2.58;;;1.90;;
66597;SDS011;57424;53.128;6.406;2022-10-23T12:55:22;3.13;;;1.70;;
66597;SDS011;57424;53.128;6.406;2022-10-23T12:57:49;3.50;;;2.10;;
66597;SDS011;57424;53.128;6.406;2022-10-23T13:00:17;3.88;;;2.13;;
66597;SDS011;57424;53.128;6.406;2022-10-23T13:02:45;3.10;;;1.80;;
66597;SDS011;57424;53.128;6.406;2022-10-23T13:05:21;4.07;;;1.90;;
66597;SDS011;57424;53.128;6.406;2022-10-23T13:07:47;3.35;;;2.08;;
66597;SDS011;57424;53.128;6.406;2022-10-23T13:10:15;4.60;;;2.33;;
66597;SDS011;57424;53.128;6.406;2022-10-23T13:12:43;3.03;;;1.40;;
66597;SDS011;57424;53.128;6.406;2022-10-23T13:15:17;3.28;;;1.52;;
66597;SDS011;57424;53.128;6.406;2022-10-23T13:20:28;3.40;;;1.90;;
66597;SDS011;57424;53.128;6.406;2022-10-23T13:25:50;2.10;;;1.90;;
66597;SDS011;57424;53.128;6.406;2022-10-23T13:28:22;3.70;;;1.80;;
66597;SDS011;57424;53.128;6.406;2022-10-23T13:30:57;3.05;;;1.80;;
66597;SDS011;57424;53.128;6.406;2022-10-23T13:33:24;4.50;;;1.98;;
66597;SDS011;57424;53.128;6.406;2022-10-23T13:35:59;4.40;;;2.20;;
66597;SDS011;57424;53.128;6.406;2022-10-23T13:38:27;3.58;;;1.70;;
66597;SDS011;57424;53.128;6.406;2022-10-23T13:41:00;3.15;;;1.92;;
66597;SDS011;57424;53.128;6.406;2022-10-23T13:43:27;2.90;;;1.80;;
66597;SDS011;57424;53.128;6.406;2022-10-23T13:45:55;3.20;;;1.63;;
66597;SDS011;57424;53.128;6.406;2022-10-23T13:48:21;3.70;;;1.75;;
66597;SDS011;57424;53.128;6.406;2022-10-23T13:50:47;2.28;;;1.70;;
66597;SDS011;57424;53.128;6.406;2022-10-23T13:53:13;3.00;;;1.70;;
66597;SDS011;57424;53.128;6.406;2022-10-23T13:55:41;3.95;;;1.85;;
66597;SDS011;57424;53.128;6.406;2022-10-23T13:58:09;2.83;;;1.52;;
66597;SDS011;57424;53.128;6.406;2022-10-23T14:00:35;4.00;;;1.83;;
66597;SDS011;57424;53.128;6.406;2022-10-23T14:03:02;4.10;;;1.80;;
66597;SDS011;57424;53.128;6.406;2022-10-23T14:05:28;4.68;;;1.70;;
66597;SDS011;57424;53.128;6.406;2022-10-23T14:07:54;2.35;;;1.60;;
66597;SDS011;57424;53.128;6.406;2022-10-23T14:10:19;3.03;;;1.75;;
66597;SDS011;57424;53.128;6.406;2022-10-23T14:12:45;4.97;;;1.80;;
66597;SDS011;57424;53.128;6.406;2022-10-23T14:15:11;1.63;;;1.50;;
66597;SDS011;57424;53.128;6.406;2022-10-23T14:17:37;3.90;;;1.80;;
66597;SDS011;57424;53.128;6.406;2022-10-23T14:20:03;2.92;;;1.50;;
66597;SDS011;57424;53.128;6.406;2022-10-23T14:22:29;2.15;;;1.77;;
66597;SDS011;57424;53.128;6.406;2022-10-23T14:24:55;3.78;;;1.75;;
66597;SDS011;57424;53.128;6.406;2022-10-23T14:27:20;2.83;;;1.52;;
66597;SDS011;57424;53.128;6.406;2022-10-23T14:29:46;2.95;;;1.60;;
66597;SDS011;57424;53.128;6.406;2022-10-23T14:32:11;3.45;;;1.63;;
66597;SDS011;57424;53.128;6.406;2022-10-23T14:34:40;2.80;;;1.58;;
66597;SDS011;57424;53.128;6.406;2022-10-23T14:37:07;3.22;;;1.70;;
66597;SDS011;57424;53.128;6.406;2022-10-23T14:39:33;2.42;;;1.58;;
66597;SDS011;57424;53.128;6.406;2022-10-23T14:41:58;3.30;;;1.67;;
66597;SDS011;57424;53.128;6.406;2022-10-23T14:44:24;3.22;;;1.67;;
66597;SDS011;57424;53.128;6.406;2022-10-23T14:46:49;2.47;;;1.70;;
66597;SDS011;57424;53.128;6.406;2022-10-23T14:49:16;3.60;;;1.77;;
66597;SDS011;57424;53.128;6.406;2022-10-23T14:51:42;3.05;;;1.75;;
66597;SDS011;57424;53.128;6.406;2022-10-23T14:54:07;2.53;;;1.63;;
66597;SDS011;57424;53.128;6.406;2022-10-23T14:56:34;2.72;;;1.85;;
66597;SDS011;57424;53.128;6.406;2022-10-23T14:59:03;1.73;;;1.55;;
66597;SDS011;57424;53.128;6.406;2022-10-23T15:01:30;2.67;;;1.60;;
66597;SDS011;57424;53.128;6.406;2022-10-23T15:04:01;2.03;;;1.52;;
66597;SDS011;57424;53.128;6.406;2022-10-23T15:06:27;3.15;;;1.90;;
66597;SDS011;57424;53.128;6.406;2022-10-23T15:08:53;3.13;;;1.30;;
66597;SDS011;57424;53.128;6.406;2022-10-23T15:11:19;2.15;;;1.67;;
66597;SDS011;57424;53.128;6.406;2022-10-23T15:13:45;2.63;;;1.70;;
66597;SDS011;57424;53.128;6.406;2022-10-23T15:16:11;2.78;;;1.60;;
66597;SDS011;57424;53.128;6.406;2022-10-23T15:18:37;5.70;;;1.73;;
66597;SDS011;57424;53.128;6.406;2022-10-23T15:21:03;8.73;;;3.30;;
66597;SDS011;57424;53.128;6.406;2022-10-23T15:23:30;5.72;;;2.60;;
66597;SDS011;57424;53.128;6.406;2022-10-23T15:25:59;5.03;;;2.58;;
66597;SDS011;57424;53.128;6.406;2022-10-23T15:28:27;9.02;;;3.05;;
66597;SDS011;57424;53.128;6.406;2022-10-23T15:30:53;7.30;;;2.90;;
66597;SDS011;57424;53.128;6.406;2022-10-23T15:33:19;7.65;;;3.78;;
66597;SDS011;57424;53.128;6.406;2022-10-23T15:35:45;14.13;;;4.53;;
66597;SDS011;57424;53.128;6.406;2022-10-23T15:38:10;17.23;;;5.68;;
66597;SDS011;57424;53.128;6.406;2022-10-23T15:40:36;16.88;;;6.15;;
66597;SDS011;57424;53.128;6.406;2022-10-23T15:43:02;16.65;;;6.18;;
66597;SDS011;57424;53.128;6.406;2022-10-23T15:45:29;13.82;;;6.25;;
66597;SDS011;57424;53.128;6.406;2022-10-23T15:47:55;16.38;;;6.68;;
66597;SDS011;57424;53.128;6.406;2022-10-23T15:50:20;19.08;;;5.93;;
66597;SDS011;57424;53.128;6.406;2022-10-23T15:52:46;19.20;;;6.10;;
66597;SDS011;57424;53.128;6.406;2022-10-23T15:55:12;17.70;;;6.30;;
66597;SDS011;57424;53.128;6.406;2022-10-23T15:57:37;14.70;;;6.30;;
66597;SDS011;57424;53.128;6.406;2022-10-23T16:00:04;16.00;;;6.30;;
66597;SDS011;57424;53.128;6.406;2022-10-23T16:04:57;16.88;;;6.38;;
66597;SDS011;57424;53.128;6.406;2022-10-23T16:07:22;12.10;;;6.05;;
66597;SDS011;57424;53.128;6.406;2022-10-23T16:09:48;12.30;;;5.65;;
66597;SDS011;57424;53.128;6.406;2022-10-23T16:12:13;15.63;;;6.20;;
66597;SDS011;57424;53.128;6.406;2022-10-23T16:14:39;13.68;;;5.68;;
66597;SDS011;57424;53.128;6.406;2022-10-23T16:17:05;16.33;;;6.55;;
66597;SDS011;57424;53.128;6.406;2022-10-23T16:19:31;13.27;;;5.40;;
66597;SDS011;57424;53.128;6.406;2022-10-23T16:21:57;13.70;;;5.20;;
66597;SDS011;57424;53.128;6.406;2022-10-23T16:24:23;12.52;;;5.25;;
66597;SDS011;57424;53.128;6.406;2022-10-23T16:26:49;13.60;;;5.40;;
66597;SDS011;57424;53.128;6.406;2022-10-23T16:29:17;12.50;;;5.40;;
66597;SDS011;57424;53.128;6.406;2022-10-23T16:31:44;10.80;;;4.90;;
66597;SDS011;57424;53.128;6.406;2022-10-23T16:34:09;12.45;;;6.18;;
66597;SDS011;57424;53.128;6.406;2022-10-23T16:36:35;15.60;;;6.65;;
66597;SDS011;57424;53.128;6.406;2022-10-23T16:39:05;12.02;;;5.95;;
66597;SDS011;57424;53.128;6.406;2022-10-23T16:41:31;13.98;;;5.68;;
66597;SDS011;57424;53.128;6.406;2022-10-23T16:43:57;12.45;;;5.30;;
66597;SDS011;57424;53.128;6.406;2022-10-23T16:46:22;12.27;;;5.05;;
66597;SDS011;57424;53.128;6.406;2022-10-23T16:48:49;10.70;;;5.20;;
66597;SDS011;57424;53.128;6.406;2022-10-23T16:51:16;10.77;;;5.32;;
66597;SDS011;57424;53.128;6.406;2022-10-23T16:53:44;13.73;;;5.05;;
66597;SDS011;57424;53.128;6.406;2022-10-23T16:56:10;11.05;;;5.00;;